sensor_id;sensor_type;location;lat;lon;timestamp;pressure;altitude;pressure_sealevel;temperature;humidity
24013;BME280;12220;50.194;18.948;2023-07-20T00:01:20;101106.09;;;20.49;63.45
24013;BME280;12220;50.194;18.948;2023-07-20T00:03:22;101117.22;;;20.49;63.49
24013;BME280;12220;50.194;18.948;2023-07-20T00:05:26;101121.75;;;20.50;63.53
24013;BME280;12220;50.194;18.948;2023-07-20T00:07:30;101121.59;;;20.52;63.61
24013;BME280;12220;50.194;18.948;2023-07-20T00:09:32;101141.92;;;20.52;63.65
24013;BME280;12220;50.194;18.948;2023-07-20T00:11:36;101154.09;;;20.51;63.67
24013;BME280;12220;50.194;18.948;2023-07-20T00:13:40;101172.85;;;20.49;63.70
24013;BME280;12220;50.194;18.948;2023-07-20T00:15:45;101174.38;;;20.44;63.69
24013;BME280;12220;50.194;18.948;2023-07-20T00:17:46;101180.09;;;20.42;63.82
24013;BME280;12220;50.194;18.948;2023-07-20T00:19:48;101178.66;;;20.38;63.74
24013;BME280;12220;50.194;18.948;2023-07-20T00:21:49;101176.74;;;20.38;63.65
24013;BME280;12220;50.194;18.948;2023-07-20T00:24:00;101180.59;;;20.37;63.37
24013;BME280;12220;50.194;18.948;2023-07-20T00:26:01;101177.97;;;20.36;62.45
24013;BME280;12220;50.194;18.948;2023-07-20T00:28:03;101022.03;;;19.13;61.32
24013;BME280;12220;50.194;18.948;2023-07-20T00:30:05;101191.70;;;20.37;60.63
24013;BME280;12220;50.194;18.948;2023-07-20T00:32:15;101200.09;;;20.46;60.32
24013;BME280;12220;50.194;18.948;2023-07-20T00:34:16;101195.80;;;20.51;59.87
24013;BME280;12220;50.194;18.948;2023-07-20T00:36:17;101201.77;;;20.57;59.89
24013;BME280;12220;50.194;18.948;2023-07-20T00:38:19;101209.95;;;20.58;60.35
24013;BME280;12220;50.194;18.948;2023-07-20T00:40:35;101206.14;;;20.59;60.75
24013;BME280;12220;50.194;18.948;2023-07-20T00:42:37;101217.03;;;20.52;61.69
24013;BME280;12220;50.194;18.948;2023-07-20T00:44:39;101215.28;;;20.51;61.33
24013;BME280;12220;50.194;18.948;2023-07-20T00:46:40;101219.25;;;20.49;61.56
24013;BME280;12220;50.194;18.948;2023-07-20T00:48:47;101215.08;;;20.45;61.69
24013;BME280;12220;50.194;18.948;2023-07-20T00:50:49;101217.44;;;20.40;62.04
24013;BME280;12220;50.194;18.948;2023-07-20T00:52:51;101220.38;;;20.38;62.05
24013;BME280;12220;50.194;18.948;2023-07-20T00:54:52;101212.20;;;20.36;62.17
24013;BME280;12220;50.194;18.948;2023-07-20T00:57:01;101209.41;;;20.36;62.24
24013;BME280;12220;50.194;18.948;2023-07-20T00:59:02;101207.83;;;20.34;62.31
24013;BME280;12220;50.194;18.948;2023-07-20T01:01:04;101209.74;;;20.33;62.44
24013;BME280;12220;50.194;18.948;2023-07-20T01:03:08;101203.46;;;20.31;62.55
24013;BME280;12220;50.194;18.948;2023-07-20T01:05:14;101201.89;;;20.29;62.61
24013;BME280;12220;50.194;18.948;2023-07-20T01:09:45;101167.26;;;20.23;62.99
24013;BME280;12220;50.194;18.948;2023-07-20T01:12:02;101165.98;;;20.17;63.16
24013;BME280;12220;50.194;18.948;2023-07-20T01:14:06;101147.87;;;20.13;63.37
24013;BME280;12220;50.194;18.948;2023-07-20T01:16:08;101137.07;;;20.10;63.61
24013;BME280;12220;50.194;18.948;2023-07-20T01:18:10;101138.99;;;20.10;63.74
24013;BME280;12220;50.194;18.948;2023-07-20T01:20:14;101122.30;;;20.10;63.79
24013;BME280;12220;50.194;18.948;2023-07-20T01:29:11;101140.09;;;19.99;64.34
24013;BME280;12220;50.194;18.948;2023-07-20T01:31:28;101148.22;;;19.92;64.64
24013;BME280;12220;50.194;18.948;2023-07-20T01:33:42;101149.72;;;19.87;64.73
24013;BME280;12220;50.194;18.948;2023-07-20T01:35:47;101144.49;;;19.83;64.87
24013;BME280;12220;50.194;18.948;2023-07-20T01:37:50;101159.41;;;19.82;65.02
24013;BME280;12220;50.194;18.948;2023-07-20T01:39:53;101152.24;;;19.80;65.29
24013;BME280;12220;50.194;18.948;2023-07-20T01:41:58;101155.19;;;19.78;65.27
24013;BME280;12220;50.194;18.948;2023-07-20T01:44:00;101148.73;;;19.78;65.28
24013;BME280;12220;50.194;18.948;2023-07-20T01:46:02;101153.39;;;19.77;65.31
24013;BME280;12220;50.194;18.948;2023-07-20T01:48:04;100867.02;;;18.08;65.31
24013;BME280;12220;50.194;18.948;2023-07-20T01:50:11;101167.73;;;19.82;65.43
24013;BME280;12220;50.194;18.948;2023-07-20T01:52:12;101176.08;;;19.82;65.47
24013;BME280;12220;50.194;18.948;2023-07-20T01:54:14;101192.59;;;19.84;65.52
24013;BME280;12220;50.194;18.948;2023-07-20T01:56:15;101191.57;;;19.85;65.53
24013;BME280;12220;50.194;18.948;2023-07-20T01:58:26;101245.23;;;19.85;65.48
24013;BME280;12220;50.194;18.948;2023-07-20T02:00:27;101193.60;;;19.83;65.58
24013;BME280;12220;50.194;18.948;2023-07-20T02:02:28;101182.82;;;19.80;65.64
24013;BME280;12220;50.194;18.948;2023-07-20T02:04:30;101185.88;;;19.77;65.83
24013;BME280;12220;50.194;18.948;2023-07-20T02:06:40;101182.99;;;19.68;65.76
24013;BME280;12220;50.194;18.948;2023-07-20T02:08:43;101184.37;;;19.64;65.83
24013;BME280;12220;50.194;18.948;2023-07-20T02:10:47;101192.70;;;19.64;65.87
24013;BME280;12220;50.194;18.948;2023-07-20T02:12:49;101193.88;;;19.62;65.95
24013;BME280;12220;50.194;18.948;2023-07-20T02:14:55;101192.28;;;19.59;65.86
24013;BME280;12220;50.194;18.948;2023-07-20T02:16:59;101198.86;;;19.58;65.87
24013;BME280;12220;50.194;18.948;2023-07-20T02:19:02;101202.84;;;19.56;65.91
24013;BME280;12220;50.194;18.948;2023-07-20T02:21:07;101209.59;;;19.53;66.12
24013;BME280;12220;50.194;18.948;2023-07-20T02:23:10;101216.46;;;19.49;65.99
24013;BME280;12220;50.194;18.948;2023-07-20T02:25:12;101228.75;;;19.46;65.97
24013;BME280;12220;50.194;18.948;2023-07-20T02:27:13;101215.18;;;19.43;66.12
24013;BME280;12220;50.194;18.948;2023-07-20T02:29:15;101205.01;;;19.34;66.45
24013;BME280;12220;50.194;18.948;2023-07-20T02:31:25;101196.55;;;19.26;66.79
24013;BME280;12220;50.194;18.948;2023-07-20T02:33:29;101214.70;;;19.20;66.87
24013;BME280;12220;50.194;18.948;2023-07-20T02:35:31;101209.18;;;19.10;68.04
24013;BME280;12220;50.194;18.948;2023-07-20T02:37:32;101211.70;;;19.04;67.80
24013;BME280;12220;50.194;18.948;2023-07-20T02:39:40;101202.08;;;18.98;67.81
24013;BME280;12220;50.194;18.948;2023-07-20T02:41:41;101206.18;;;18.94;68.02
24013;BME280;12220;50.194;18.948;2023-07-20T02:43:48;101222.11;;;18.92;68.30
24013;BME280;12220;50.194;18.948;2023-07-20T02:45:50;101209.56;;;18.88;68.36
24013;BME280;12220;50.194;18.948;2023-07-20T02:47:55;101205.16;;;18.85;68.47
24013;BME280;12220;50.194;18.948;2023-07-20T02:49:56;101215.96;;;18.78;68.77
24013;BME280;12220;50.194;18.948;2023-07-20T02:51:58;101221.10;;;18.73;68.84
24013;BME280;12220;50.194;18.948;2023-07-20T02:54:02;101227.96;;;18.69;68.82
24013;BME280;12220;50.194;18.948;2023-07-20T02:56:09;101220.95;;;18.65;68.96
24013;BME280;12220;50.194;18.948;2023-07-20T02:58:11;101219.50;;;18.61;69.14
24013;BME280;12220;50.194;18.948;2023-07-20T03:00:13;101217.03;;;18.58;69.62
24013;BME280;12220;50.194;18.948;2023-07-20T03:02:16;101216.31;;;18.56;69.60
24013;BME280;12220;50.194;18.948;2023-07-20T03:04:27;101220.10;;;18.55;69.50
24013;BME280;12220;50.194;18.948;2023-07-20T03:06:31;101222.30;;;18.51;69.71
24013;BME280;12220;50.194;18.948;2023-07-20T03:08:36;101219.98;;;18.46;69.72
24013;BME280;12220;50.194;18.948;2023-07-20T03:10:41;101231.23;;;18.45;69.65
24013;BME280;12220;50.194;18.948;2023-07-20T03:12:43;101233.70;;;18.38;69.95
24013;BME280;12220;50.194;18.948;2023-07-20T03:14:44;101240.70;;;18.33;69.86
24013;BME280;12220;50.194;18.948;2023-07-20T03:16:46;101241.87;;;18.30;69.97
24013;BME280;12220;50.194;18.948;2023-07-20T03:18:47;101256.77;;;18.29;70.02
24013;BME280;12220;50.194;18.948;2023-07-20T03:20:56;101265.35;;;18.26;70.39
24013;BME280;12220;50.194;18.948;2023-07-20T03:22:58;101267.41;;;18.24;70.13
24013;BME280;12220;50.194;18.948;2023-07-20T03:24:59;101267.84;;;18.19;70.26
24013;BME280;12220;50.194;18.948;2023-07-20T03:27:00;101280.80;;;18.19;70.11
24013;BME280;12220;50.194;18.948;2023-07-20T03:29:11;101275.55;;;18.16;70.18
24013;BME280;12220;50.194;18.948;2023-07-20T03:31:12;101283.01;;;18.15;70.20
24013;BME280;12220;50.194;18.948;2023-07-20T03:33:15;101288.99;;;18.10;70.51
24013;BME280;12220;50.194;18.948;2023-07-20T03:35:17;101286.65;;;18.06;70.38
24013;BME280;12220;50.194;18.948;2023-07-20T03:37:25;101279.63;;;18.02;70.77
24013;BME280;12220;50.194;18.948;2023-07-20T03:39:27;101290.27;;;17.97;70.99
24013;BME280;12220;50.194;18.948;2023-07-20T03:41:28;101290.70;;;17.92;71.15
24013;BME280;12220;50.194;18.948;2023-07-20T03:43:30;101280.63;;;17.91;71.28
24013;BME280;12220;50.194;18.948;2023-07-20T03:45:40;101276.38;;;17.87;71.77
24013;BME280;12220;50.194;18.948;2023-07-20T03:47:42;101270.08;;;17.85;71.50
24013;BME280;12220;50.194;18.948;2023-07-20T03:49:45;101269.94;;;17.86;71.47
24013;BME280;12220;50.194;18.948;2023-07-20T03:51:46;101281.91;;;17.87;71.34
24013;BME280;12220;50.194;18.948;2023-07-20T03:53:55;101281.51;;;17.91;71.26
24013;BME280;12220;50.194;18.948;2023-07-20T03:55:57;101287.77;;;17.93;71.72
24013;BME280;12220;50.194;18.948;2023-07-20T03:57:58;101293.79;;;17.99;71.28
24013;BME280;12220;50.194;18.948;2023-07-20T03:59:59;101279.78;;;18.00;71.21
24013;BME280;12220;50.194;18.948;2023-07-20T04:02:10;101272.19;;;18.02;71.15
24013;BME280;12220;50.194;18.948;2023-07-20T04:04:12;101279.49;;;18.03;71.13
24013;BME280;12220;50.194;18.948;2023-07-20T04:06:13;101277.44;;;18.05;71.18
24013;BME280;12220;50.194;18.948;2023-07-20T04:08:17;101285.76;;;18.05;71.30
24013;BME280;12220;50.194;18.948;2023-07-20T04:10:25;101286.65;;;18.06;71.08
24013;BME280;12220;50.194;18.948;2023-07-20T04:12:26;101313.32;;;18.07;71.58
24013;BME280;12220;50.194;18.948;2023-07-20T04:14:30;101313.32;;;18.07;71.31
24013;BME280;12220;50.194;18.948;2023-07-20T04:16:31;101317.85;;;18.08;71.18
24013;BME280;12220;50.194;18.948;2023-07-20T04:18:40;101315.95;;;18.08;71.11
24013;BME280;12220;50.194;18.948;2023-07-20T04:20:41;101308.24;;;18.12;71.20
24013;BME280;12220;50.194;18.948;2023-07-20T04:22:43;101306.19;;;18.14;71.34
24013;BME280;12220;50.194;18.948;2023-07-20T04:24:45;101285.63;;;18.17;71.43
24013;BME280;12220;50.194;18.948;2023-07-20T04:26:55;101290.02;;;18.19;71.39
24013;BME280;12220;50.194;18.948;2023-07-20T04:28:56;101307.37;;;18.21;71.40
24013;BME280;12220;50.194;18.948;2023-07-20T04:33:13;101299.66;;;18.25;71.47
24013;BME280;12220;50.194;18.948;2023-07-20T04:37:31;101293.52;;;18.31;71.50
24013;BME280;12220;50.194;18.948;2023-07-20T04:39:32;101296.15;;;18.33;71.70
24013;BME280;12220;50.194;18.948;2023-07-20T04:41:34;101293.23;;;18.34;71.74
24013;BME280;12220;50.194;18.948;2023-07-20T04:43:35;101295.41;;;18.40;71.74
24013;BME280;12220;50.194;18.948;2023-07-20T04:45:46;101293.96;;;18.46;71.64
24013;BME280;12220;50.194;18.948;2023-07-20T04:47:47;101307.38;;;18.51;71.52
24013;BME280;12220;50.194;18.948;2023-07-20T04:49:48;101311.63;;;18.55;71.43
24013;BME280;12220;50.194;18.948;2023-07-20T04:51:51;101317.91;;;18.57;71.40
24013;BME280;12220;50.194;18.948;2023-07-20T04:54:00;101313.23;;;18.57;71.56
24013;BME280;12220;50.194;18.948;2023-07-20T04:56:02;100924.33;;;16.22;71.36
24013;BME280;12220;50.194;18.948;2023-07-20T04:58:03;101331.64;;;18.58;71.56
24013;BME280;12220;50.194;18.948;2023-07-20T05:00:06;101336.29;;;18.58;71.56
24013;BME280;12220;50.194;18.948;2023-07-20T05:02:15;101333.52;;;18.58;71.62
24013;BME280;12220;50.194;18.948;2023-07-20T05:04:17;101327.11;;;18.57;71.68
24013;BME280;12220;50.194;18.948;2023-07-20T05:06:18;101325.35;;;18.56;71.74
24013;BME280;12220;50.194;18.948;2023-07-20T05:08:20;101318.93;;;18.56;71.88
24013;BME280;12220;50.194;18.948;2023-07-20T05:10:30;101325.20;;;18.58;71.90
24013;BME280;12220;50.194;18.948;2023-07-20T05:12:33;101329.58;;;18.60;71.92
24013;BME280;12220;50.194;18.948;2023-07-20T05:14:34;101336.74;;;18.63;71.88
24013;BME280;12220;50.194;18.948;2023-07-20T05:16:36;101333.83;;;18.64;71.88
24013;BME280;12220;50.194;18.948;2023-07-20T05:18:45;101172.80;;;17.58;71.78
24013;BME280;12220;50.194;18.948;2023-07-20T05:20:47;101354.70;;;18.69;71.92
24013;BME280;12220;50.194;18.948;2023-07-20T05:22:49;101347.10;;;18.71;71.88
24013;BME280;12220;50.194;18.948;2023-07-20T05:24:53;101360.53;;;18.75;71.87
24013;BME280;12220;50.194;18.948;2023-07-20T05:27:00;101360.12;;;18.80;71.83
24013;BME280;12220;50.194;18.948;2023-07-20T05:29:01;101358.91;;;18.82;71.82
24013;BME280;12220;50.194;18.948;2023-07-20T05:31:03;101360.53;;;18.85;71.66
24013;BME280;12220;50.194;18.948;2023-07-20T05:33:04;101371.51;;;18.87;71.63
24013;BME280;12220;50.194;18.948;2023-07-20T05:35:15;101370.50;;;18.88;71.58
24013;BME280;12220;50.194;18.948;2023-07-20T05:37:18;101364.95;;;18.88;71.63
24013;BME280;12220;50.194;18.948;2023-07-20T05:39:19;101367.28;;;18.92;71.63
24013;BME280;12220;50.194;18.948;2023-07-20T05:41:21;101362.29;;;18.96;71.52
24013;BME280;12220;50.194;18.948;2023-07-20T05:43:30;101360.41;;;18.96;71.36
24013;BME280;12220;50.194;18.948;2023-07-20T05:45:32;101362.18;;;18.97;71.35
24013;BME280;12220;50.194;18.948;2023-07-20T05:47:33;101353.71;;;18.99;71.31
24013;BME280;12220;50.194;18.948;2023-07-20T05:49:35;101360.98;;;19.00;71.23
24013;BME280;12220;50.194;18.948;2023-07-20T05:51:44;101358.96;;;19.02;71.23
24013;BME280;12220;50.194;18.948;2023-07-20T05:53:48;101364.51;;;19.02;71.12
24013;BME280;12220;50.194;18.948;2023-07-20T05:55:57;101356.89;;;19.04;71.12
24013;BME280;12220;50.194;18.948;2023-07-20T05:57:58;101361.13;;;19.08;71.09
24013;BME280;12220;50.194;18.948;2023-07-20T06:00:00;101373.09;;;19.09;70.95
24013;BME280;12220;50.194;18.948;2023-07-20T06:02:01;101363.19;;;19.06;70.82
24013;BME280;12220;50.194;18.948;2023-07-20T06:04:02;101365.98;;;19.06;70.73
24013;BME280;12220;50.194;18.948;2023-07-20T06:06:04;101361.43;;;19.05;70.57
24013;BME280;12220;50.194;18.948;2023-07-20T06:08:14;101374.56;;;19.03;70.42
24013;BME280;12220;50.194;18.948;2023-07-20T06:10:15;101366.68;;;18.98;70.54
24013;BME280;12220;50.194;18.948;2023-07-20T06:12:17;101364.95;;;18.97;70.54
24013;BME280;12220;50.194;18.948;2023-07-20T06:14:18;101363.91;;;18.98;70.54
24013;BME280;12220;50.194;18.948;2023-07-20T06:16:29;101371.08;;;19.01;70.68
24013;BME280;12220;50.194;18.948;2023-07-20T06:18:30;101370.05;;;19.02;70.76
24013;BME280;12220;50.194;18.948;2023-07-20T06:20:32;101363.19;;;19.06;70.85
24013;BME280;12220;50.194;18.948;2023-07-20T06:22:33;101358.20;;;19.10;70.57
24013;BME280;12220;50.194;18.948;2023-07-20T06:24:44;101366.09;;;19.14;70.55
24013;BME280;12220;50.194;18.948;2023-07-20T06:26:45;101361.98;;;19.19;70.67
24013;BME280;12220;50.194;18.948;2023-07-20T06:28:46;101366.94;;;19.25;70.70
24013;BME280;12220;50.194;18.948;2023-07-20T06:30:48;101364.76;;;19.28;70.55
24013;BME280;12220;50.194;18.948;2023-07-20T06:32:59;101354.05;;;19.33;70.34
24013;BME280;12220;50.194;18.948;2023-07-20T06:35:00;101355.36;;;19.39;70.16
24013;BME280;12220;50.194;18.948;2023-07-20T06:37:03;101351.97;;;19.45;69.98
24013;BME280;12220;50.194;18.948;2023-07-20T06:39:05;101367.91;;;19.53;69.77
24013;BME280;12220;50.194;18.948;2023-07-20T06:41:13;101369.05;;;19.60;69.75
24013;BME280;12220;50.194;18.948;2023-07-20T06:43:15;101368.28;;;19.68;69.71
24013;BME280;12220;50.194;18.948;2023-07-20T06:45:17;101365.47;;;19.78;69.42
24013;BME280;12220;50.194;18.948;2023-07-20T06:47:18;101363.87;;;19.85;69.04
24013;BME280;12220;50.194;18.948;2023-07-20T06:49:28;101358.39;;;19.93;68.77
24013;BME280;12220;50.194;18.948;2023-07-20T06:51:30;101358.82;;;19.98;68.37
24013;BME280;12220;50.194;18.948;2023-07-20T06:53:31;101365.68;;;20.04;68.22
24013;BME280;12220;50.194;18.948;2023-07-20T06:55:33;101358.62;;;20.10;68.10
24013;BME280;12220;50.194;18.948;2023-07-20T06:57:43;101362.98;;;20.12;67.88
24013;BME280;12220;50.194;18.948;2023-07-20T06:59:44;101366.48;;;20.14;67.79
24013;BME280;12220;50.194;18.948;2023-07-20T07:01:46;101368.80;;;20.19;67.90
24013;BME280;12220;50.194;18.948;2023-07-20T07:03:47;101367.15;;;20.26;67.72
24013;BME280;12220;50.194;18.948;2023-07-20T07:05:58;101361.98;;;20.31;67.80
24013;BME280;12220;50.194;18.948;2023-07-20T07:07:59;101364.31;;;20.36;67.53
24013;BME280;12220;50.194;18.948;2023-07-20T07:10:01;101356.52;;;20.40;67.59
24013;BME280;12220;50.194;18.948;2023-07-20T07:12:06;101360.58;;;20.45;67.60
24013;BME280;12220;50.194;18.948;2023-07-20T07:14:13;101359.08;;;20.51;67.30
24013;BME280;12220;50.194;18.948;2023-07-20T07:16:14;101369.02;;;20.53;66.61
24013;BME280;12220;50.194;18.948;2023-07-20T07:18:20;101371.48;;;20.57;66.01
24013;BME280;12220;50.194;18.948;2023-07-20T07:20:21;101368.70;;;20.57;64.67
24013;BME280;12220;50.194;18.948;2023-07-20T07:22:27;101373.63;;;20.63;64.99
24013;BME280;12220;50.194;18.948;2023-07-20T07:24:31;101377.72;;;20.68;65.09
24013;BME280;12220;50.194;18.948;2023-07-20T07:26:35;101377.80;;;20.77;64.75
24013;BME280;12220;50.194;18.948;2023-07-20T07:28:36;101386.71;;;20.80;64.07
24013;BME280;12220;50.194;18.948;2023-07-20T07:30:44;101371.44;;;20.84;63.68
24013;BME280;12220;50.194;18.948;2023-07-20T07:32:46;101379.63;;;20.86;63.48
24013;BME280;12220;50.194;18.948;2023-07-20T07:34:47;101383.85;;;20.90;63.69
24013;BME280;12220;50.194;18.948;2023-07-20T07:36:49;101377.80;;;20.95;63.51
24013;BME280;12220;50.194;18.948;2023-07-20T07:38:57;101383.90;;;20.98;62.90
24013;BME280;12220;50.194;18.948;2023-07-20T07:40:59;101383.45;;;21.03;63.10
24013;BME280;12220;50.194;18.948;2023-07-20T07:43:01;101386.44;;;21.10;62.96
24013;BME280;12220;50.194;18.948;2023-07-20T07:45:03;101388.90;;;21.13;62.73
24013;BME280;12220;50.194;18.948;2023-07-20T07:47:12;101388.44;;;21.17;62.70
24013;BME280;12220;50.194;18.948;2023-07-20T07:49:13;101392.79;;;21.20;62.75
24013;BME280;12220;50.194;18.948;2023-07-20T07:51:15;101381.02;;;21.26;62.46
24013;BME280;12220;50.194;18.948;2023-07-20T07:53:16;101390.62;;;21.32;62.28
24013;BME280;12220;50.194;18.948;2023-07-20T07:55:30;101387.20;;;21.38;61.77
24013;BME280;12220;50.194;18.948;2023-07-20T07:57:31;101390.36;;;21.43;61.31
24013;BME280;12220;50.194;18.948;2023-07-20T07:59:33;101399.81;;;21.50;61.15
24013;BME280;12220;50.194;18.948;2023-07-20T08:01:38;101393.77;;;21.55;60.89
24013;BME280;12220;50.194;18.948;2023-07-20T08:03:42;101394.87;;;21.62;60.85
24013;BME280;12220;50.194;18.948;2023-07-20T08:05:43;101396.46;;;21.65;60.60
24013;BME280;12220;50.194;18.948;2023-07-20T08:07:45;101394.70;;;21.64;60.02
24013;BME280;12220;50.194;18.948;2023-07-20T08:09:46;101394.70;;;21.64;60.26
24013;BME280;12220;50.194;18.948;2023-07-20T08:11:56;101391.75;;;21.65;60.40
24013;BME280;12220;50.194;18.948;2023-07-20T08:14:01;101394.54;;;21.65;60.50
24013;BME280;12220;50.194;18.948;2023-07-20T08:16:03;101391.28;;;21.70;60.68
24013;BME280;12220;50.194;18.948;2023-07-20T08:18:05;101391.80;;;21.73;60.76
24013;BME280;12220;50.194;18.948;2023-07-20T08:20:12;101393.06;;;21.79;60.88
24013;BME280;12220;50.194;18.948;2023-07-20T08:22:14;101401.96;;;21.83;60.67
24013;BME280;12220;50.194;18.948;2023-07-20T08:24:16;101407.06;;;21.87;60.64
24013;BME280;12220;50.194;18.948;2023-07-20T08:26:17;101398.55;;;21.97;60.41
24013;BME280;12220;50.194;18.948;2023-07-20T08:28:36;101388.65;;;22.03;59.99
24013;BME280;12220;50.194;18.948;2023-07-20T08:30:49;101402.64;;;22.11;59.82
24013;BME280;12220;50.194;18.948;2023-07-20T08:32:50;101404.06;;;22.15;59.47
24013;BME280;12220;50.194;18.948;2023-07-20T08:34:52;101398.82;;;22.20;59.12
24013;BME280;12220;50.194;18.948;2023-07-20T08:36:53;101403.89;;;22.25;59.21
24013;BME280;12220;50.194;18.948;2023-07-20T08:39:02;101401.49;;;22.30;59.31
24013;BME280;12220;50.194;18.948;2023-07-20T08:41:04;101410.41;;;22.34;59.36
24013;BME280;12220;50.194;18.948;2023-07-20T08:43:06;101237.96;;;21.35;59.39
24013;BME280;12220;50.194;18.948;2023-07-20T08:45:08;101416.73;;;22.44;59.46
24013;BME280;12220;50.194;18.948;2023-07-20T08:47:17;101417.28;;;22.48;59.03
24013;BME280;12220;50.194;18.948;2023-07-20T08:49:20;101416.59;;;22.45;58.88
24013;BME280;12220;50.194;18.948;2023-07-20T08:51:21;101420.41;;;22.44;58.99
24013;BME280;12220;50.194;18.948;2023-07-20T08:53:24;101416.90;;;22.42;59.00
24013;BME280;12220;50.194;18.948;2023-07-20T08:55:32;101419.52;;;22.44;59.10
24013;BME280;12220;50.194;18.948;2023-07-20T08:57:33;101410.12;;;22.45;58.98
24013;BME280;12220;50.194;18.948;2023-07-20T08:59:36;101413.63;;;22.47;59.16
24013;BME280;12220;50.194;18.948;2023-07-20T09:01:39;101417.96;;;22.50;58.74
24013;BME280;12220;50.194;18.948;2023-07-20T09:03:47;101415.18;;;22.50;58.51
24013;BME280;12220;50.194;18.948;2023-07-20T09:05:53;101422.69;;;22.49;59.01
24013;BME280;12220;50.194;18.948;2023-07-20T09:07:58;101422.00;;;22.55;58.80
24013;BME280;12220;50.194;18.948;2023-07-20T09:09:59;101421.30;;;22.61;58.81
24013;BME280;12220;50.194;18.948;2023-07-20T09:12:14;101408.41;;;22.69;58.56
24013;BME280;12220;50.194;18.948;2023-07-20T09:14:24;101410.38;;;22.76;57.55
24013;BME280;12220;50.194;18.948;2023-07-20T09:16:25;101403.92;;;22.84;57.43
24013;BME280;12220;50.194;18.948;2023-07-20T09:18:32;101409.86;;;22.97;57.43
24013;BME280;12220;50.194;18.948;2023-07-20T09:20:36;101412.33;;;23.09;57.04
24013;BME280;12220;50.194;18.948;2023-07-20T09:22:39;101413.94;;;23.11;56.35
24013;BME280;12220;50.194;18.948;2023-07-20T09:24:40;101406.07;;;23.15;56.79
24013;BME280;12220;50.194;18.948;2023-07-20T09:26:44;101404.14;;;23.24;57.03
24013;BME280;12220;50.194;18.948;2023-07-20T09:28:51;101405.37;;;23.29;56.66
24013;BME280;12220;50.194;18.948;2023-07-20T09:30:57;101413.59;;;23.39;56.38
24013;BME280;12220;50.194;18.948;2023-07-20T09:32:58;101401.86;;;23.44;56.09
24013;BME280;12220;50.194;18.948;2023-07-20T09:35:00;101402.91;;;23.51;55.86
24013;BME280;12220;50.194;18.948;2023-07-20T09:37:01;101392.23;;;23.55;55.65
24013;BME280;12220;50.194;18.948;2023-07-20T09:39:08;101395.91;;;23.55;55.11
24013;BME280;12220;50.194;18.948;2023-07-20T09:41:16;101395.21;;;23.53;54.88
24013;BME280;12220;50.194;18.948;2023-07-20T09:43:30;101397.67;;;23.56;54.70
24013;BME280;12220;50.194;18.948;2023-07-20T09:45:35;101400.30;;;23.58;54.26
24013;BME280;12220;50.194;18.948;2023-07-20T09:47:40;101400.62;;;23.63;54.86
24013;BME280;12220;50.194;18.948;2023-07-20T09:49:50;101395.88;;;23.63;55.04
24013;BME280;12220;50.194;18.948;2023-07-20T09:51:57;101403.23;;;23.64;55.08
24013;BME280;12220;50.194;18.948;2023-07-20T09:54:01;101405.84;;;23.66;55.00
24013;BME280;12220;50.194;18.948;2023-07-20T09:56:07;101401.33;;;23.65;55.12
24013;BME280;12220;50.194;18.948;2023-07-20T09:58:09;101403.41;;;23.63;55.23
24013;BME280;12220;50.194;18.948;2023-07-20T10:00:11;101401.33;;;23.57;55.45
24013;BME280;12220;50.194;18.948;2023-07-20T10:02:20;101405.35;;;23.54;55.57
24013;BME280;12220;50.194;18.948;2023-07-20T10:04:23;101403.77;;;23.52;55.39
24013;BME280;12220;50.194;18.948;2023-07-20T10:06:28;101404.30;;;23.55;55.69
24013;BME280;12220;50.194;18.948;2023-07-20T10:08:32;101400.80;;;23.61;55.78
24013;BME280;12220;50.194;18.948;2023-07-20T10:10:41;101402.51;;;23.71;55.76
24013;BME280;12220;50.194;18.948;2023-07-20T10:12:52;101399.88;;;23.77;55.12
24013;BME280;12220;50.194;18.948;2023-07-20T10:15:04;101403.22;;;23.81;54.72
24013;BME280;12220;50.194;18.948;2023-07-20T10:17:07;101239.18;;;22.84;54.32
24013;BME280;12220;50.194;18.948;2023-07-20T10:19:23;101233.95;;;22.89;54.58
24013;BME280;12220;50.194;18.948;2023-07-20T10:21:29;101396.67;;;24.05;54.70
24013;BME280;12220;50.194;18.948;2023-07-20T10:23:31;101395.24;;;24.17;54.07
24013;BME280;12220;50.194;18.948;2023-07-20T10:25:33;101395.90;;;24.28;54.09
24013;BME280;12220;50.194;18.948;2023-07-20T10:27:39;101406.52;;;24.41;54.01
24013;BME280;12220;50.194;18.948;2023-07-20T10:29:41;101401.74;;;24.49;53.78
24013;BME280;12220;50.194;18.948;2023-07-20T10:31:43;101397.67;;;24.52;53.55
24013;BME280;12220;50.194;18.948;2023-07-20T10:33:47;101402.61;;;24.50;52.71
24013;BME280;12220;50.194;18.948;2023-07-20T10:35:57;101405.24;;;24.43;52.72
24013;BME280;12220;50.194;18.948;2023-07-20T10:38:03;101400.91;;;24.41;52.75
24013;BME280;12220;50.194;18.948;2023-07-20T10:42:19;101396.66;;;24.45;52.49
24013;BME280;12220;50.194;18.948;2023-07-20T10:44:25;101391.40;;;24.50;52.27
24013;BME280;12220;50.194;18.948;2023-07-20T10:51:20;101376.95;;;24.69;51.79
24013;BME280;12220;50.194;18.948;2023-07-20T10:53:12;101384.25;;;24.79;51.66
24013;BME280;12220;50.194;18.948;2023-07-20T10:55:15;101377.91;;;24.85;51.29
24013;BME280;12220;50.194;18.948;2023-07-20T10:57:31;101376.10;;;24.92;50.73
24013;BME280;12220;50.194;18.948;2023-07-20T10:59:37;101378.84;;;25.00;50.35
24013;BME280;12220;50.194;18.948;2023-07-20T11:01:44;101382.45;;;25.09;49.52